createdAt,value
2018-08-03T00:00:45.607Z,15.87
2018-08-03T00:03:14.249Z,14.70
2018-08-03T00:05:43.010Z,15.80
2018-08-03T00:08:11.690Z,15.53
2018-08-03T00:10:41.289Z,15.07
2018-08-03T00:13:11.137Z,15.33
2018-08-03T00:15:39.805Z,14.93
2018-08-03T00:18:08.519Z,16.03
2018-08-03T00:20:37.798Z,16.97
2018-08-03T00:23:06.507Z,14.73
2018-08-03T00:25:35.188Z,15.70
2018-08-03T00:28:03.952Z,16.47
2018-08-03T00:30:32.655Z,15.07
2018-08-03T00:33:01.386Z,16.73
2018-08-03T00:35:30.105Z,15.43
2018-08-03T00:37:58.829Z,15.10
2018-08-03T00:40:28.854Z,16.10
2018-08-03T00:42:57.503Z,14.40
2018-08-03T00:45:26.228Z,14.37
2018-08-03T00:47:54.879Z,14.83
2018-08-03T00:50:23.597Z,15.67
2018-08-03T00:52:52.262Z,16.60
2018-08-03T00:55:21.658Z,16.53
2018-08-03T00:57:50.380Z,15.47
2018-08-03T01:00:19.469Z,15.70
2018-08-03T01:02:48.117Z,15.13
2018-08-03T01:05:16.945Z,16.50
2018-08-03T01:07:45.828Z,15.80
2018-08-03T01:10:15.164Z,17.07
2018-08-03T01:12:46.793Z,14.73
2018-08-03T01:15:16.448Z,15.23
2018-08-03T01:17:45.144Z,14.60
2018-08-03T01:20:13.841Z,16.07
2018-08-03T01:22:42.491Z,15.77
2018-08-03T01:25:11.229Z,14.30
2018-08-03T01:27:39.921Z,15.17
2018-08-03T01:30:09.441Z,15.30
2018-08-03T01:32:38.195Z,15.37
2018-08-03T01:35:06.947Z,14.60
2018-08-03T01:37:35.708Z,14.47
2018-08-03T01:40:04.844Z,14.27
2018-08-03T01:42:33.497Z,15.80
2018-08-03T01:45:02.244Z,14.90
2018-08-03T01:47:30.940Z,14.13
2018-08-03T01:49:59.581Z,15.70
2018-08-03T01:52:28.237Z,15.10
2018-08-03T01:54:56.928Z,14.27
2018-08-03T01:57:25.640Z,15.27
2018-08-03T01:59:54.336Z,13.87
2018-08-03T02:02:22.755Z,14.40
2018-08-03T02:04:51.426Z,14.37
2018-08-03T02:07:21.032Z,14.50
2018-08-03T02:09:49.719Z,13.10
2018-08-03T02:12:18.058Z,12.90
2018-08-03T02:14:46.932Z,13.53
2018-08-03T02:17:15.564Z,14.83
2018-08-03T02:19:44.394Z,13.27
2018-08-03T02:22:13.849Z,13.77
2018-08-03T02:24:42.612Z,13.43
2018-08-03T02:27:11.312Z,13.77
2018-08-03T02:29:39.970Z,12.50
2018-08-03T02:32:09.107Z,12.43
2018-08-03T02:34:37.464Z,12.90
2018-08-03T02:37:06.259Z,12.53
2018-08-03T02:39:34.988Z,13.10
2018-08-03T02:42:03.334Z,13.70
2018-08-03T02:44:32.016Z,12.47
2018-08-03T02:47:00.732Z,13.50
2018-08-03T02:49:29.453Z,10.87
2018-08-03T02:51:58.230Z,11.37
2018-08-03T02:54:26.904Z,12.00
2018-08-03T02:56:55.648Z,12.33
2018-08-03T02:59:24.391Z,11.10
2018-08-03T03:01:53.130Z,11.40
2018-08-03T03:04:22.653Z,11.80
2018-08-03T03:06:51.995Z,12.73
2018-08-03T03:09:21.863Z,12.73
2018-08-03T03:11:50.562Z,11.83
2018-08-03T03:14:19.980Z,12.23
2018-08-03T03:16:48.692Z,13.03
2018-08-03T03:19:17.412Z,12.40
2018-08-03T03:21:46.168Z,13.20
2018-08-03T03:24:14.870Z,12.17
2018-08-03T03:26:43.865Z,12.40
2018-08-03T03:29:12.625Z,12.60
2018-08-03T03:31:41.312Z,12.77
2018-08-03T03:34:10.097Z,13.43
2018-08-03T03:36:38.776Z,12.70
2018-08-03T03:39:10.431Z,12.60
2018-08-03T03:41:39.137Z,13.40
2018-08-03T03:44:08.069Z,13.30
2018-08-03T03:46:37.166Z,13.90
2018-08-03T03:49:06.020Z,13.33
2018-08-03T03:51:34.779Z,14.10
2018-08-03T03:54:03.556Z,13.40
2018-08-03T03:56:32.259Z,14.57
2018-08-03T03:59:00.912Z,13.63
2018-08-03T04:01:29.639Z,14.37
2018-08-03T04:03:58.464Z,13.37
2018-08-03T04:06:27.084Z,14.30
2018-08-03T04:08:55.369Z,14.80
2018-08-03T04:11:24.025Z,13.67
2018-08-03T04:13:52.735Z,14.37
2018-08-03T04:16:21.996Z,14.40
2018-08-03T04:18:50.685Z,14.73
2018-08-03T04:21:20.421Z,14.57
2018-08-03T04:23:49.609Z,13.90
2018-08-03T04:26:18.344Z,14.23
2018-08-03T04:28:47.832Z,13.90
2018-08-03T04:31:16.603Z,14.70
2018-08-03T04:33:45.270Z,15.67
2018-08-03T04:36:13.985Z,14.03
2018-08-03T04:38:43.413Z,15.00
2018-08-03T04:41:12.094Z,13.63
2018-08-03T04:43:41.020Z,14.83
2018-08-03T04:46:09.765Z,15.07
2018-08-03T04:48:38.242Z,15.90
2018-08-03T04:51:07.236Z,14.37
2018-08-03T04:53:36.744Z,14.40
2018-08-03T04:56:05.468Z,14.83
2018-08-03T04:58:34.151Z,15.37
2018-08-03T05:01:02.908Z,14.17
2018-08-03T05:03:31.607Z,14.70
2018-08-03T05:06:00.290Z,14.00
2018-08-03T05:08:28.971Z,13.70
2018-08-03T05:10:57.699Z,14.23
2018-08-03T05:13:26.377Z,14.33
2018-08-03T05:15:55.977Z,13.63
2018-08-03T05:18:24.668Z,13.90
2018-08-03T05:20:54.133Z,14.50
2018-08-03T05:23:24.145Z,14.93
2018-08-03T05:25:52.843Z,15.03
2018-08-03T05:28:26.183Z,14.63
2018-08-03T05:30:54.896Z,13.93
2018-08-03T05:33:23.597Z,14.97
2018-08-03T05:35:52.327Z,13.87
2018-08-03T05:38:21.402Z,14.53
2018-08-03T05:40:50.132Z,13.40
2018-08-03T05:43:19.137Z,14.63
2018-08-03T05:45:47.891Z,15.23
2018-08-03T05:48:16.661Z,14.40
2018-08-03T05:50:45.339Z,14.77
2018-08-03T05:53:13.985Z,15.43
2018-08-03T05:55:42.659Z,14.63
2018-08-03T05:58:11.319Z,15.47
2018-08-03T06:00:40.026Z,14.60
2018-08-03T06:03:08.744Z,13.53
2018-08-03T06:05:37.400Z,14.37
2018-08-03T06:08:06.204Z,14.50
2018-08-03T06:10:34.850Z,14.10
2018-08-03T06:13:03.540Z,14.60
2018-08-03T06:15:32.168Z,14.00
2018-08-03T06:18:00.821Z,14.17
2018-08-03T06:20:29.490Z,14.77
2018-08-03T06:22:58.125Z,14.57
2018-08-03T06:25:26.894Z,14.13
2018-08-03T06:27:55.537Z,15.10
2018-08-03T06:30:24.303Z,15.40
2018-08-03T06:32:52.977Z,13.10
2018-08-03T06:35:22.737Z,15.63
2018-08-03T06:37:51.461Z,14.60
2018-08-03T06:40:20.738Z,14.53
2018-08-03T06:42:49.409Z,14.93
2018-08-03T06:45:18.148Z,15.40
2018-08-03T06:47:46.889Z,15.97
2018-08-03T06:50:15.817Z,14.80
2018-08-03T06:52:44.630Z,14.83
2018-08-03T06:55:13.977Z,15.13
2018-08-03T06:57:42.855Z,14.73
2018-08-03T07:00:11.745Z,14.93
2018-08-03T07:02:40.956Z,14.67
2018-08-03T07:05:09.667Z,15.20
2018-08-03T07:07:38.319Z,14.37
2018-08-03T07:10:07.797Z,13.60
2018-08-03T07:12:36.537Z,13.90
2018-08-03T07:15:05.514Z,13.77
2018-08-03T07:17:34.962Z,14.57
2018-08-03T07:20:03.762Z,13.60
2018-08-03T07:22:32.462Z,14.33
2018-08-03T07:25:01.133Z,13.90
2018-08-03T07:27:29.902Z,14.20
2018-08-03T07:29:58.605Z,13.63
2018-08-03T07:32:27.302Z,15.60
2018-08-03T07:34:55.986Z,14.20
2018-08-03T07:37:24.609Z,13.80
2018-08-03T07:39:53.274Z,14.07
2018-08-03T07:42:22.565Z,14.30
2018-08-03T07:44:51.272Z,14.00
2018-08-03T07:47:20.485Z,13.77
2018-08-03T07:49:49.196Z,14.20
2018-08-03T07:52:17.951Z,14.50
2018-08-03T07:54:46.204Z,14.57
2018-08-03T07:57:14.922Z,13.23
2018-08-03T07:59:43.668Z,14.20
2018-08-03T08:02:12.353Z,15.27
2018-08-03T08:04:41.118Z,14.40
2018-08-03T08:07:09.818Z,13.07
2018-08-03T08:09:38.505Z,14.00
2018-08-03T08:12:07.310Z,13.53
2018-08-03T08:14:36.040Z,13.17
2018-08-03T08:17:04.796Z,12.90
2018-08-03T08:19:33.603Z,13.00
2018-08-03T08:22:02.633Z,12.57
2018-08-03T08:24:31.453Z,14.00
2018-08-03T08:27:00.193Z,14.27
2018-08-03T08:29:28.892Z,12.70
2018-08-03T08:31:57.869Z,14.03
2018-08-03T08:34:26.716Z,12.80
2018-08-03T08:36:55.467Z,13.17
2018-08-03T08:39:24.153Z,13.33
2018-08-03T08:41:52.624Z,13.17
2018-08-03T08:44:22.033Z,12.73
2018-08-03T08:46:50.748Z,13.67
2018-08-03T08:49:20.432Z,14.77
2018-08-03T08:51:49.116Z,13.40
2018-08-03T08:54:17.857Z,13.87
2018-08-03T08:56:47.060Z,13.10
2018-08-03T08:59:16.289Z,13.90
2018-08-03T09:01:45.028Z,13.53
2018-08-03T09:04:13.684Z,13.17
2018-08-03T09:06:42.500Z,13.73
2018-08-03T09:09:11.953Z,14.40
2018-08-03T09:11:40.808Z,12.90
2018-08-03T09:14:09.592Z,14.07
2018-08-03T09:16:38.292Z,15.57
2018-08-03T09:19:07.060Z,14.57
2018-08-03T09:21:35.724Z,13.57
2018-08-03T09:24:04.510Z,13.30
2018-08-03T09:26:33.160Z,13.17
2018-08-03T09:29:01.889Z,13.90
2018-08-03T09:31:30.630Z,12.87
2018-08-03T09:33:59.370Z,13.90
2018-08-03T09:36:28.098Z,12.37
2018-08-03T09:38:56.860Z,13.00
2018-08-03T09:41:25.559Z,13.00
2018-08-03T09:43:54.253Z,12.63
2018-08-03T09:46:22.997Z,12.00
2018-08-03T09:48:51.690Z,12.67
2018-08-03T09:51:20.360Z,12.80
2018-08-03T09:53:49.052Z,12.37
2018-08-03T09:56:18.086Z,10.87
2018-08-03T09:58:46.834Z,10.47
2018-08-03T10:01:15.493Z,10.87
2018-08-03T10:03:44.217Z,11.23
2018-08-03T10:06:13.749Z,11.13
2018-08-03T10:08:42.540Z,10.80
2018-08-03T10:11:11.321Z,10.80
2018-08-03T10:13:40.011Z,9.83
2018-08-03T10:16:08.709Z,11.13
2018-08-03T10:18:37.502Z,11.20
2018-08-03T10:21:06.225Z,11.50
2018-08-03T10:23:34.511Z,11.10
2018-08-03T10:26:03.117Z,11.77
2018-08-03T10:28:31.789Z,10.93
2018-08-03T10:31:00.509Z,11.00
2018-08-03T10:33:29.157Z,10.27
2018-08-03T10:35:57.850Z,10.77
2018-08-03T10:38:26.566Z,10.57
2018-08-03T10:40:55.256Z,11.20
2018-08-03T10:43:23.941Z,9.80
2018-08-03T10:45:52.721Z,10.37
2018-08-03T10:48:22.659Z,10.17
2018-08-03T10:50:51.396Z,9.47
2018-08-03T10:53:24.013Z,9.57
2018-08-03T10:55:52.948Z,9.90
2018-08-03T10:58:22.574Z,8.87
2018-08-03T11:00:52.119Z,9.57
2018-08-03T11:03:20.934Z,9.40
2018-08-03T11:05:49.629Z,8.60
2018-08-03T11:08:18.304Z,9.23
2018-08-03T11:10:47.045Z,9.70
2018-08-03T11:13:15.729Z,8.27
2018-08-03T11:15:44.436Z,9.33
2018-08-03T11:18:13.128Z,9.13
2018-08-03T11:20:41.957Z,9.33
2018-08-03T11:23:10.650Z,8.23
2018-08-03T11:25:39.371Z,9.57
2018-08-03T11:28:08.070Z,8.60
2018-08-03T11:30:36.717Z,7.90
2018-08-03T11:33:05.461Z,8.83
2018-08-03T11:35:34.154Z,7.87
2018-08-03T11:38:02.861Z,8.80
2018-08-03T11:40:31.553Z,8.60
2018-08-03T11:43:00.271Z,8.63
2018-08-03T11:45:29.026Z,8.90
2018-08-03T11:47:57.690Z,9.00
2018-08-03T11:50:26.377Z,8.73
2018-08-03T11:52:55.051Z,8.50
2018-08-03T11:55:23.795Z,8.90
2018-08-03T11:57:52.155Z,8.30
2018-08-03T12:00:21.122Z,8.37
2018-08-03T12:02:49.830Z,8.13
2018-08-03T12:05:18.694Z,7.70
2018-08-03T12:07:47.393Z,9.50
2018-08-03T12:10:16.068Z,8.97
2018-08-03T12:12:44.774Z,8.20
2018-08-03T12:15:13.425Z,8.37
2018-08-03T12:17:42.137Z,7.83
2018-08-03T12:20:10.826Z,8.33
2018-08-03T12:22:39.555Z,7.43
2018-08-03T12:25:08.361Z,7.63
2018-08-03T12:27:37.132Z,7.73
2018-08-03T12:30:05.612Z,6.70
2018-08-03T12:32:33.849Z,6.23
2018-08-03T12:35:02.544Z,5.90
2018-08-03T12:37:31.213Z,5.80
2018-08-03T12:39:59.871Z,5.70
2018-08-03T12:42:28.579Z,5.80
2018-08-03T12:44:57.320Z,5.80
2018-08-03T12:47:25.950Z,5.53
2018-08-03T12:49:54.661Z,6.10
2018-08-03T12:52:23.457Z,6.03
2018-08-03T12:54:52.389Z,6.00
2018-08-03T12:57:21.620Z,4.93
2018-08-03T12:59:50.297Z,5.60
2018-08-03T13:02:19.092Z,6.10
2018-08-03T13:04:47.760Z,5.70
2018-08-03T13:07:16.585Z,5.37
2018-08-03T13:09:45.307Z,5.70
2018-08-03T13:12:14.089Z,5.23
2018-08-03T13:14:42.840Z,6.17
2018-08-03T13:17:11.471Z,5.60
2018-08-03T13:19:40.156Z,6.00
2018-08-03T13:22:19.394Z,5.10
2018-08-03T13:24:48.081Z,5.77
2018-08-03T13:27:16.948Z,5.83
2018-08-03T13:29:45.643Z,6.27
2018-08-03T13:32:14.265Z,6.90
2018-08-03T13:34:42.951Z,6.17
2018-08-03T13:37:11.367Z,6.00
2018-08-03T13:39:40.046Z,5.90
2018-08-03T13:42:08.743Z,5.83
2018-08-03T13:44:37.532Z,5.37
2018-08-03T13:47:06.182Z,5.70
2018-08-03T13:49:35.037Z,5.50
2018-08-03T13:52:03.814Z,5.87
2018-08-03T13:54:32.577Z,4.63
2018-08-03T13:57:01.327Z,6.23
2018-08-03T13:59:30.037Z,6.10
2018-08-03T14:02:09.859Z,5.80
2018-08-03T14:04:38.501Z,5.67
2018-08-03T14:07:07.201Z,6.13
2018-08-03T14:09:35.912Z,6.10
2018-08-03T14:12:21.052Z,5.60
2018-08-03T14:15:09.675Z,5.87
2018-08-03T14:17:52.857Z,5.90
2018-08-03T14:20:43.963Z,5.70
2018-08-03T14:23:12.736Z,5.73
2018-08-03T14:25:41.466Z,5.50
2018-08-03T14:28:10.175Z,5.97
2018-08-03T14:30:38.900Z,5.97
2018-08-03T14:33:07.726Z,6.20
2018-08-03T14:35:36.484Z,6.10
2018-08-03T14:38:05.251Z,6.30
2018-08-03T14:40:34.049Z,5.53
2018-08-03T14:43:03.046Z,5.90
2018-08-03T14:45:32.085Z,5.40
2018-08-03T14:48:00.492Z,5.83
2018-08-03T14:50:29.286Z,5.53
2018-08-03T14:52:57.949Z,6.20
2018-08-03T14:55:26.670Z,5.40
2018-08-03T14:57:55.341Z,7.03
2018-08-03T15:00:24.156Z,6.33
2018-08-03T15:02:52.842Z,5.73
2018-08-03T15:05:21.964Z,6.10
2018-08-03T15:07:50.957Z,5.90
2018-08-03T15:10:20.500Z,5.87
2018-08-03T15:12:49.241Z,6.03
2018-08-03T15:15:17.985Z,6.43
2018-08-03T15:17:46.686Z,6.07
2018-08-03T15:20:15.397Z,6.47
2018-08-03T15:22:44.069Z,5.60
2018-08-03T15:25:12.837Z,6.27
2018-08-03T15:27:41.589Z,5.47
2018-08-03T15:30:11.317Z,5.60
2018-08-03T15:32:40.424Z,5.73
2018-08-03T15:35:09.272Z,6.20
2018-08-03T15:37:37.953Z,7.50
2018-08-03T15:40:07.233Z,6.00
2018-08-03T15:42:35.960Z,5.83
2018-08-03T15:45:05.721Z,5.00
2018-08-03T15:47:35.570Z,5.77
2018-08-03T15:50:04.689Z,5.80
2018-08-03T15:52:33.094Z,6.20
2018-08-03T15:55:01.794Z,6.93
2018-08-03T15:57:30.532Z,8.23
2018-08-03T15:59:59.181Z,7.40
2018-08-03T16:02:29.433Z,7.33
2018-08-03T16:04:58.116Z,6.90
2018-08-03T16:07:26.753Z,7.27
2018-08-03T16:09:55.910Z,7.20
2018-08-03T16:12:24.624Z,6.20
2018-08-03T16:14:53.356Z,8.53
2018-08-03T16:17:23.562Z,6.53
2018-08-03T16:19:52.205Z,5.40
2018-08-03T16:22:22.108Z,5.80
2018-08-03T16:24:50.885Z,4.73
2018-08-03T16:27:20.458Z,4.93
2018-08-03T16:29:49.184Z,5.37
2018-08-03T16:32:17.921Z,5.60
2018-08-03T16:34:46.706Z,5.57
2018-08-03T16:37:15.469Z,5.73
2018-08-03T16:39:44.159Z,5.77
2018-08-03T16:42:12.888Z,5.30
2018-08-03T16:44:41.594Z,5.73
2018-08-03T16:47:10.289Z,6.30
2018-08-03T16:49:39.024Z,6.30
2018-08-03T16:52:07.796Z,7.10
2018-08-03T16:54:36.103Z,6.60
2018-08-03T16:57:04.897Z,6.20
2018-08-03T16:59:33.566Z,6.40
2018-08-03T17:02:02.233Z,5.70
2018-08-03T17:04:30.980Z,6.30
2018-08-03T17:06:59.680Z,5.70
2018-08-03T17:09:28.428Z,6.80
2018-08-03T17:11:57.098Z,7.20
2018-08-03T17:14:25.837Z,7.07
2018-08-03T17:16:54.537Z,9.30
2018-08-03T17:19:23.338Z,8.50
2018-08-03T17:21:52.120Z,8.20
2018-08-03T17:24:21.293Z,7.70
2018-08-03T17:26:50.000Z,8.87
2018-08-03T17:29:19.065Z,10.00
2018-08-03T17:31:47.751Z,8.50
2018-08-03T17:34:16.429Z,8.80
2018-08-03T17:36:45.121Z,8.20
2018-08-03T17:39:13.911Z,12.13
2018-08-03T17:41:45.336Z,14.23
2018-08-03T17:44:14.126Z,12.60
2018-08-03T17:46:42.769Z,10.40
2018-08-03T17:49:14.464Z,10.73
2018-08-03T17:51:43.247Z,14.43
2018-08-03T17:54:11.681Z,11.93
2018-08-03T17:56:40.352Z,12.37
2018-08-03T17:59:09.065Z,13.47
2018-08-03T18:01:37.885Z,10.70
2018-08-03T18:04:06.605Z,11.23
2018-08-03T18:06:35.309Z,10.33
2018-08-03T18:09:06.511Z,9.37
2018-08-03T18:11:34.798Z,9.93
2018-08-03T18:14:04.428Z,9.03
2018-08-03T18:16:33.238Z,9.80
2018-08-03T18:19:02.151Z,10.43
2018-08-03T18:21:30.995Z,9.43
2018-08-03T18:23:59.736Z,9.63
2018-08-03T18:26:29.197Z,10.27
2018-08-03T18:28:59.524Z,10.13
2018-08-03T18:31:28.867Z,10.60
2018-08-03T18:33:58.450Z,10.40
2018-08-03T18:36:27.464Z,10.20
2018-08-03T18:38:57.583Z,10.43
2018-08-03T18:41:27.036Z,10.00
2018-08-03T18:43:55.754Z,10.37
2018-08-03T18:46:25.589Z,10.40
2018-08-03T18:48:58.623Z,9.90
2018-08-03T18:51:27.358Z,10.77
2018-08-03T18:53:56.009Z,9.73
2018-08-03T18:56:24.715Z,10.40
2018-08-03T18:58:53.416Z,10.33
2018-08-03T19:01:22.733Z,10.30
2018-08-03T19:03:51.407Z,10.07
2018-08-03T19:06:21.162Z,10.67
2018-08-03T19:08:50.013Z,10.40
2018-08-03T19:11:18.877Z,10.93
2018-08-03T19:13:47.581Z,9.50
2018-08-03T19:16:16.486Z,9.77
2018-08-03T19:18:45.184Z,10.47
2018-08-03T19:21:14.232Z,10.47
2018-08-03T19:23:44.062Z,10.50
2018-08-03T19:26:13.014Z,10.23
2018-08-03T19:28:41.832Z,10.30
2018-08-03T19:31:10.519Z,9.67
2018-08-03T19:33:39.226Z,10.77
2018-08-03T19:36:08.020Z,10.10
2018-08-03T19:38:36.778Z,9.67
2018-08-03T19:41:06.164Z,10.47
2018-08-03T19:43:37.143Z,12.10
2018-08-03T19:46:10.118Z,10.27
2018-08-03T19:48:38.853Z,10.90
2018-08-03T19:51:07.643Z,10.30
2018-08-03T19:53:37.315Z,10.60
2018-08-03T19:56:06.232Z,11.83
2018-08-03T19:58:35.392Z,10.73
2018-08-03T20:01:03.820Z,11.00
2018-08-03T20:03:32.469Z,9.73
2018-08-03T20:06:05.760Z,10.60
2018-08-03T20:08:34.465Z,10.40
2018-08-03T20:11:03.222Z,10.77
2018-08-03T20:13:32.878Z,10.80
2018-08-03T20:16:02.153Z,11.23
2018-08-03T20:18:30.918Z,10.90
2018-08-03T20:20:59.572Z,10.90
2018-08-03T20:23:28.517Z,10.00
2018-08-03T20:25:57.420Z,10.57
2018-08-03T20:28:26.137Z,10.57
2018-08-03T20:30:57.053Z,12.00
2018-08-03T20:33:26.696Z,10.20
2018-08-03T20:35:55.753Z,11.17
2018-08-03T20:38:24.464Z,11.87
2018-08-03T20:40:54.189Z,10.60
2018-08-03T20:43:23.299Z,11.10
2018-08-03T20:45:51.992Z,12.57
2018-08-03T20:48:21.710Z,11.30
2018-08-03T20:50:50.388Z,12.43
2018-08-03T20:53:19.036Z,13.00
2018-08-03T20:55:47.705Z,11.23
2018-08-03T20:58:16.401Z,11.70
2018-08-03T21:00:45.109Z,12.00
2018-08-03T21:03:13.797Z,11.37
2018-08-03T21:05:42.845Z,11.77
2018-08-03T21:08:11.585Z,11.90
2018-08-03T21:10:40.413Z,12.20
2018-08-03T21:13:10.478Z,11.20
2018-08-03T21:15:40.730Z,12.73
2018-08-03T21:18:09.466Z,13.33
2018-08-03T21:20:38.439Z,12.40
2018-08-03T21:23:07.133Z,12.50
2018-08-03T21:25:36.857Z,11.83
2018-08-03T21:28:06.105Z,12.73
2018-08-03T21:30:35.724Z,12.60
2018-08-03T21:33:04.559Z,12.00
2018-08-03T21:35:38.257Z,12.80
2018-08-03T21:38:08.039Z,12.00
2018-08-03T21:40:36.993Z,13.30
2018-08-03T21:43:05.940Z,13.03
2018-08-03T21:45:35.091Z,12.80
2018-08-03T21:48:04.195Z,12.80
2018-08-03T21:50:33.033Z,12.63
2018-08-03T21:53:01.690Z,12.73
2018-08-03T21:55:30.352Z,12.23
2018-08-03T21:57:59.132Z,13.40
2018-08-03T22:00:28.108Z,12.40
2018-08-03T22:02:57.348Z,12.10
2018-08-03T22:05:27.228Z,12.60
2018-08-03T22:07:57.052Z,11.57
2018-08-03T22:10:25.760Z,12.57
2018-08-03T22:12:59.215Z,13.00
2018-08-03T22:15:28.493Z,12.30
2018-08-03T22:17:57.353Z,10.73
2018-08-03T22:20:26.054Z,12.17
2018-08-03T22:22:55.335Z,11.77
2018-08-03T22:25:24.573Z,12.20
2018-08-03T22:27:53.272Z,12.53
2018-08-03T22:30:23.353Z,12.70
2018-08-03T22:32:52.827Z,11.93
2018-08-03T22:35:26.586Z,12.43
2018-08-03T22:37:56.188Z,11.07
2018-08-03T22:40:26.684Z,10.80
2018-08-03T22:42:57.022Z,11.67
2018-08-03T22:45:25.723Z,11.73
2018-08-03T22:47:58.807Z,12.03
2018-08-03T22:50:28.104Z,11.70
2018-08-03T22:52:57.131Z,11.63
2018-08-03T22:55:26.492Z,11.83
2018-08-03T22:57:59.230Z,12.17
2018-08-03T23:00:27.923Z,12.20
2018-08-03T23:02:56.604Z,12.60
2018-08-03T23:05:25.349Z,12.00
2018-08-03T23:07:54.043Z,12.40
2018-08-03T23:10:23.287Z,12.73
2018-08-03T23:12:51.947Z,10.73
2018-08-03T23:15:29.427Z,11.47
2018-08-03T23:17:58.128Z,12.53
2018-08-03T23:20:26.956Z,11.97
2018-08-03T23:22:57.151Z,11.40
2018-08-03T23:25:26.431Z,12.97
2018-08-03T23:27:55.966Z,13.00
2018-08-03T23:30:25.413Z,12.77
2018-08-03T23:32:54.329Z,13.23
2018-08-03T23:35:24.482Z,13.50
2018-08-03T23:37:53.166Z,13.53
2018-08-03T23:40:23.581Z,13.23
2018-08-03T23:42:52.421Z,12.90
2018-08-03T23:45:21.246Z,14.03
2018-08-03T23:47:50.041Z,12.90
2018-08-03T23:50:19.466Z,13.50
2018-08-03T23:52:49.456Z,14.03
2018-08-03T23:55:18.774Z,13.10
2018-08-03T23:57:48.459Z,12.70
